Time;durP1;ratioP1;P1;durP2;ratioP2;P2;SDS_P1;SDS_P2;PMS_P1;PMS_P2;Temp;Humidity;BMP_temperature;BMP_pressure;BME280_temperature;BME280_humidity;BME280_pressure;Samples;Min_cycle;Max_cycle;Signal;HPM_P1;HPM_P2
2023/01/11 00:01:52;;;;;;;8.93;1.73;;;;;;;8.01;65.64;100782.22;4204489;28;20041;-73
2023/01/11 00:03:57;;;;;;;4.57;1.50;;;;;;;7.99;65.57;100768.38;4195344;28;20128;-72
2023/01/11 00:06:00;;;;;;;5.95;1.80;;;;;;;8.03;65.36;100766.75;4195850;28;20131;-72
2023/01/11 00:08:03;;;;;;;4.10;1.30;;;;;;;8.02;65.61;100765.00;4179111;28;20049;-73
2023/01/11 00:10:07;;;;;;;4.80;1.98;;;;;;;7.92;65.21;100766.44;4196465;28;20044;-73
2023/01/11 00:12:13;;;;;;;8.27;1.63;;;;;;;7.94;65.22;100764.75;4197672;28;20044;-73
2023/01/11 00:14:15;;;;;;;5.03;1.60;;;;;;;7.92;64.81;100769.03;4197100;28;20040;-73
2023/01/11 00:16:18;;;;;;;7.60;1.65;;;;;;;7.98;65.04;100758.84;4196524;28;20508;-73
2023/01/11 00:18:21;;;;;;;4.05;1.92;;;;;;;7.93;64.57;100767.31;4195004;28;20135;-73
2023/01/11 00:20:25;;;;;;;4.20;1.42;;;;;;;7.95;64.84;100761.34;4196833;28;20036;-73
2023/01/11 00:22:28;;;;;;;6.07;1.75;;;;;;;7.97;64.86;100761.38;4192749;28;20036;-73
2023/01/11 00:24:31;;;;;;;7.18;1.75;;;;;;;8.07;64.64;100762.53;4192823;28;20036;-72
2023/01/11 00:26:34;;;;;;;6.00;1.52;;;;;;;8.10;64.48;100757.44;4191069;28;20040;-72
2023/01/11 00:28:37;;;;;;;2.75;1.38;;;;;;;8.18;63.76;100745.63;4192890;28;20063;-72
2023/01/11 00:30:39;;;;;;;6.20;1.38;;;;;;;8.18;63.47;100740.44;4195526;28;20040;-72
2023/01/11 00:32:43;;;;;;;6.25;2.28;;;;;;;8.15;64.27;100740.34;4195999;28;20513;-73
2023/01/11 00:34:45;;;;;;;4.10;1.65;;;;;;;8.13;64.56;100734.22;4191449;28;20127;-73
2023/01/11 00:36:50;;;;;;;4.40;1.75;;;;;;;8.14;64.43;100738.59;4197342;28;20059;-73
2023/01/11 00:38:54;;;;;;;8.85;2.22;;;;;;;8.02;64.88;100736.53;4191099;28;20047;-73
2023/01/11 00:47:55;;;;;;;7.50;1.42;;;;;;;8.15;64.61;100732.59;4191513;28;20041;-72
2023/01/11 00:48:15;;;;;;;3.55;1.50;;;;;;;8.08;65.29;100702.16;4193928;28;20127;-73
2023/01/11 00:50:18;;;;;;;6.05;1.73;;;;;;;8.14;65.27;100704.91;4194263;28;20036;-73
2023/01/11 00:52:22;;;;;;;4.60;1.52;;;;;;;8.14;65.39;100702.34;4196277;28;20036;-73
2023/01/11 00:54:25;;;;;;;5.88;1.83;;;;;;;8.17;65.33;100697.22;4195601;28;20063;-73
2023/01/11 00:56:28;;;;;;;7.22;1.75;;;;;;;8.14;65.47;100697.16;4194498;28;20107;-73
2023/01/11 00:58:30;;;;;;;7.25;2.25;;;;;;;8.16;65.53;100693.78;4195152;28;20447;-74
2023/01/11 01:00:33;;;;;;;4.22;1.58;;;;;;;8.21;65.78;100693.91;4194424;28;20032;-72
2023/01/11 01:02:36;;;;;;;4.10;1.63;;;;;;;8.19;65.67;100691.28;4195090;28;20044;-72
2023/01/11 01:04:40;;;;;;;8.32;1.75;;;;;;;8.25;65.20;100690.56;4194224;28;20518;-72
2023/01/11 01:06:42;;;;;;;5.47;1.60;;;;;;;8.15;65.93;100680.78;4192963;28;20391;-72
2023/01/11 01:08:47;;;;;;;3.60;1.60;;;;;;;8.18;65.84;100679.16;4194969;28;20040;-72
2023/01/11 01:10:51;;;;;;;2.45;1.17;;;;;;;8.17;65.88;100686.88;4193755;28;20044;-71
2023/01/11 01:15:14;;;;;;;7.43;2.15;;;;;;;8.17;65.95;100685.16;4193831;28;21487;-72
2023/01/11 01:17:17;;;;;;;5.30;1.58;;;;;;;8.21;65.65;100670.59;4193168;28;20489;-72
2023/01/11 01:19:21;;;;;;;7.13;1.60;;;;;;;8.29;65.82;100675.97;4194178;28;20123;-72
2023/01/11 01:21:24;;;;;;;5.90;1.40;;;;;;;8.23;66.06;100674.09;4189966;28;20119;-72
2023/01/11 01:23:27;;;;;;;3.13;1.50;;;;;;;8.23;65.97;100671.50;4194900;28;20032;-72
2023/01/11 01:25:31;;;;;;;2.80;1.50;;;;;;;8.27;65.99;100668.16;4195683;28;20047;-72
2023/01/11 01:27:34;;;;;;;5.68;1.77;;;;;;;8.28;66.09;100667.34;4193774;28;20036;-73
2023/01/11 01:29:36;;;;;;;4.47;1.55;;;;;;;8.33;66.00;100667.44;4194050;28;20432;-72
2023/01/11 01:31:39;;;;;;;4.95;1.60;;;;;;;8.25;66.29;100671.53;4193947;28;20045;-72
2023/01/11 01:33:42;;;;;;;3.42;1.58;;;;;;;8.25;66.29;100677.63;4192722;28;20036;-72
2023/01/11 01:35:45;;;;;;;5.57;2.20;;;;;;;8.29;66.50;100661.28;4192417;28;20045;-73
2023/01/11 01:37:48;;;;;;;4.78;1.90;;;;;;;8.26;66.53;100663.81;4194621;28;20070;-72
2023/01/11 01:39:51;;;;;;;4.97;1.70;;;;;;;8.24;66.19;100657.72;4194601;28;20040;-72
2023/01/11 01:41:55;;;;;;;3.75;1.52;;;;;;;8.23;66.20;100661.13;4188601;28;20040;-72
2023/01/11 01:43:59;;;;;;;3.17;1.27;;;;;;;8.27;65.98;100657.81;4194842;28;20486;-72
2023/01/11 01:46:02;;;;;;;3.38;1.52;;;;;;;8.28;66.49;100662.16;4193224;28;20046;-71
2023/01/11 01:48:09;;;;;;;4.13;1.50;;;;;;;8.36;66.24;100663.22;4192881;28;20040;-72
2023/01/11 01:50:16;;;;;;;5.47;1.40;;;;;;;8.21;66.56;100663.69;4193386;28;20565;-73
2023/01/11 01:52:19;;;;;;;2.97;1.15;;;;;;;8.28;66.15;100650.91;4195085;28;20127;-73
2023/01/11 01:54:25;;;;;;;7.55;1.95;;;;;;;8.19;66.79;100667.06;4193543;28;20044;-73
2023/01/11 01:56:33;;;;;;;4.18;1.60;;;;;;;8.15;67.04;100667.84;4194501;28;20052;-73
2023/01/11 01:58:42;;;;;;;6.90;1.80;;;;;;;8.24;67.46;100672.41;4191847;28;20040;-73
2023/01/11 02:00:45;;;;;;;4.82;1.52;;;;;;;8.28;67.56;100658.66;4194310;28;20186;-73
2023/01/11 02:02:49;;;;;;;7.25;1.85;;;;;;;8.34;67.78;100674.41;4210612;28;20401;-73
2023/01/11 02:04:55;;;;;;;3.88;1.50;;;;;;;8.18;68.41;100667.94;4192370;28;20086;-73
2023/01/11 02:07:02;;;;;;;4.82;1.90;;;;;;;8.27;68.13;100668.16;4191866;28;20051;-72
2023/01/11 02:09:11;;;;;;;4.43;1.60;;;;;;;8.14;68.49;100676.44;4193400;28;20036;-72
2023/01/11 02:11:29;;;;;;;4.13;1.35;;;;;;;8.18;68.69;100667.94;4194185;28;20036;-72
2023/01/11 02:13:44;;;;;;;9.65;1.60;;;;;;;8.08;69.26;100677.13;4192778;28;20063;-72
2023/01/11 02:16:06;;;;;;;6.03;1.70;;;;;;;8.01;69.63;100657.97;4194109;28;20060;-73
2023/01/11 02:18:10;;;;;;;5.75;1.38;;;;;;;8.06;69.91;100667.56;4192898;28;20052;-72
2023/01/11 02:20:33;;;;;;;4.57;1.42;;;;;;;8.12;69.90;100659.97;4193847;28;20459;-72
2023/01/11 02:23:01;;;;;;;4.85;1.42;;;;;;;8.11;69.76;100660.81;4192214;28;20110;-72
2023/01/11 02:25:37;;;;;;;6.15;1.50;;;;;;;8.08;70.15;100659.00;4186801;28;20046;-72
2023/01/11 02:27:55;;;;;;;2.60;1.10;;;;;;;7.94;70.67;100668.97;4168243;28;20048;-72
2023/01/11 02:30:12;;;;;;;3.42;1.42;;;;;;;7.98;70.58;100660.47;4191418;28;20046;-72
2023/01/11 02:32:25;;;;;;;4.15;1.50;;;;;;;7.97;70.94;100658.72;4194369;28;20036;-72
2023/01/11 02:34:40;;;;;;;3.35;1.52;;;;;;;7.97;71.19;100658.72;4193412;28;20059;-72
2023/01/11 02:36:58;;;;;;;5.20;1.58;;;;;;;7.97;71.19;100656.16;4194622;28;20033;-74
2023/01/11 02:39:09;;;;;;;5.75;1.70;;;;;;;7.97;71.16;100657.84;4193239;28;20037;-73
2023/01/11 02:41:20;;;;;;;7.43;1.80;;;;;;;8.00;71.07;100653.63;4195062;28;20102;-74
2023/01/11 02:45:58;;;;;;;5.00;1.98;;;;;;;8.10;71.67;100646.09;4188887;28;20043;-73
2023/01/11 02:48:09;;;;;;;6.30;1.63;;;;;;;8.24;71.37;100642.19;4194674;28;20042;-72
2023/01/11 02:50:19;;;;;;;5.15;1.98;;;;;;;8.11;71.90;100645.28;4195549;28;20098;-72
2023/01/11 02:52:32;;;;;;;5.28;2.38;;;;;;;8.08;71.59;100640.03;4192026;28;20040;-72
2023/01/11 02:54:37;;;;;;;4.18;1.38;;;;;;;8.15;71.38;100639.34;4193965;28;20042;-72
2023/01/11 02:56:43;;;;;;;4.18;1.13;;;;;;;8.04;71.78;100639.94;4193326;28;20074;-72
2023/01/11 02:58:50;;;;;;;5.35;1.20;;;;;;;7.97;72.34;100638.03;4196171;28;20119;-72
2023/01/11 03:00:57;;;;;;;3.35;1.52;;;;;;;7.97;72.43;100637.13;4194891;28;20062;-72
2023/01/11 03:03:12;;;;;;;5.95;1.75;;;;;;;8.03;72.38;100627.81;4195295;28;20478;-71
2023/01/11 03:05:15;;;;;;;6.07;1.70;;;;;;;8.11;72.36;100616.81;4194084;28;20044;-72
2023/01/11 03:07:34;;;;;;;3.00;1.17;;;;;;;8.17;72.06;100614.38;4191938;28;20086;-72
2023/01/11 03:09:51;;;;;;;3.97;1.40;;;;;;;8.20;72.16;100617.03;4194097;28;20033;-72
2023/01/11 03:14:41;;;;;;;4.35;1.50;;;;;;;8.32;71.89;100617.38;4190166;28;20081;-73
2023/01/11 03:16:49;;;;;;;5.65;1.67;;;;;;;8.31;72.08;100617.31;4192959;28;20044;-72
2023/01/11 03:18:59;;;;;;;4.38;1.40;;;;;;;8.30;72.28;100621.63;4193283;28;20437;-72
2023/01/11 03:21:16;;;;;;;3.20;1.25;;;;;;;8.42;72.01;100610.69;4191709;28;20578;-72
2023/01/11 03:23:24;;;;;;;5.07;1.98;;;;;;;8.43;72.20;100614.19;4192647;28;20131;-71
2023/01/11 03:25:37;;;;;;;8.35;1.58;;;;;;;8.41;71.88;100616.72;4192302;28;20086;-71
2023/01/11 03:27:49;;;;;;;5.78;1.92;;;;;;;8.51;72.07;100612.66;4191737;28;20040;-71
2023/01/11 03:30:02;;;;;;;2.72;1.27;;;;;;;8.48;71.88;100616.06;4191224;28;20098;-71
2023/01/11 03:32:14;;;;;;;5.57;1.48;;;;;;;8.55;71.92;100610.19;4194065;28;20503;-71
2023/01/11 03:34:23;;;;;;;7.72;1.48;;;;;;;8.51;72.02;100605.78;4193137;28;20514;-71
2023/01/11 03:36:32;;;;;;;2.92;1.00;;;;;;;8.48;72.21;100605.69;4191664;28;20033;-72
2023/01/11 03:38:40;;;;;;;3.13;0.90;;;;;;;8.47;72.41;100600.47;4192947;28;20060;-71
2023/01/11 03:40:48;;;;;;;4.00;1.40;;;;;;;8.46;72.92;100598.75;4196936;28;20040;-70
2023/01/11 03:43:13;;;;;;;2.47;1.42;;;;;;;8.44;73.18;100592.59;4193906;28;20514;-70
2023/01/11 03:45:17;;;;;;;3.80;1.30;;;;;;;8.35;73.35;100588.94;4190499;28;20502;-71
2023/01/11 03:47:23;;;;;;;3.83;1.65;;;;;;;8.42;72.96;100583.91;4194978;28;20041;-70
2023/01/11 03:49:31;;;;;;;5.15;1.50;;;;;;;8.42;73.21;100574.41;4194749;28;20047;-71
2023/01/11 03:51:40;;;;;;;4.38;1.17;;;;;;;8.47;73.12;100588.41;4192846;28;20407;-70
2023/01/11 03:53:46;;;;;;;5.07;2.35;;;;;;;8.56;72.80;100582.59;4194116;28;20363;-71
2023/01/11 03:55:55;;;;;;;3.15;1.33;;;;;;;8.58;72.60;100578.28;4187906;28;20441;-71
2023/01/11 03:57:58;;;;;;;2.40;1.33;;;;;;;8.50;72.95;100572.06;4195203;28;20033;-70
2023/01/11 04:00:02;;;;;;;2.72;1.33;;;;;;;8.49;73.02;100567.72;4194499;28;20087;-71
2023/01/11 04:02:15;;;;;;;3.25;1.42;;;;;;;8.50;73.06;100559.13;4194801;28;20067;-70
2023/01/11 04:04:18;;;;;;;4.28;1.40;;;;;;;8.42;73.46;100558.88;4193121;28;20433;-72
2023/01/11 04:06:22;;;;;;;2.85;1.33;;;;;;;8.50;73.35;100561.72;4194807;28;20039;-71
2023/01/11 04:08:25;;;;;;;5.20;1.25;;;;;;;8.49;73.31;100549.59;4193868;28;20044;-72
2023/01/11 04:10:28;;;;;;;7.05;1.63;;;;;;;8.48;73.56;100555.59;4196771;28;20037;-71
2023/01/11 04:12:31;;;;;;;3.00;1.40;;;;;;;8.40;73.66;100545.03;4196995;28;20513;-71
2023/01/11 04:14:34;;;;;;;5.38;1.73;;;;;;;8.46;73.67;100545.19;4194107;28;20065;-72
2023/01/11 04:16:36;;;;;;;4.65;1.30;;;;;;;8.50;73.63;100546.16;4196659;28;20036;-71
2023/01/11 04:18:41;;;;;;;7.10;2.33;;;;;;;8.48;73.57;100540.06;4197857;28;20449;-71
2023/01/11 04:20:46;;;;;;;5.95;2.00;;;;;;;8.54;73.60;100538.50;4194281;28;20203;-71
2023/01/11 04:22:48;;;;;;;;;;;;;;;8.41;73.75;100540.72;4196976;28;20486;-72
2023/01/11 04:24:51;;;;;;;3.90;1.33;;;;;;;8.47;73.82;100525.34;4194253;28;19924;-72
2023/01/11 04:26:54;;;;;;;5.35;1.40;;;;;;;8.45;73.89;100533.06;4194769;28;20493;-72
2023/01/11 04:28:57;;;;;;;6.75;1.60;;;;;;;8.50;73.80;100531.47;4194658;28;20040;-72
2023/01/11 04:31:00;;;;;;;5.65;1.63;;;;;;;8.52;73.62;100529.78;4195883;28;20041;-72
2023/01/11 04:33:03;;;;;;;5.10;1.60;;;;;;;8.53;73.74;100525.50;4195084;28;20066;-72
2023/01/11 04:35:08;;;;;;;6.57;1.70;;;;;;;8.55;73.79;100513.44;4194489;28;20047;-72
2023/01/11 04:37:11;;;;;;;5.00;1.70;;;;;;;8.56;73.76;100510.03;4197707;28;20040;-72
2023/01/11 04:39:14;;;;;;;3.47;1.42;;;;;;;8.66;73.61;100508.50;4196589;28;20041;-72
2023/01/11 04:43:38;;;;;;;2.25;1.40;;;;;;;8.53;74.16;100515.13;4193719;28;20123;-71
2023/01/11 04:45:42;;;;;;;1.98;1.33;;;;;;;8.51;74.05;100509.94;4196192;28;20037;-72
2023/01/11 04:47:45;;;;;;;4.63;1.75;;;;;;;8.58;73.95;100513.50;4195085;28;20514;-72
2023/01/11 04:49:48;;;;;;;4.88;1.50;;;;;;;8.52;74.01;100513.38;4178211;28;20041;-72
2023/01/11 04:51:52;;;;;;;3.80;1.65;;;;;;;8.58;74.06;100508.34;4194069;28;20482;-71
2023/01/11 04:53:55;;;;;;;3.88;1.25;;;;;;;8.65;73.87;100505.03;4176174;28;20048;-72
2023/01/11 04:55:59;;;;;;;2.92;1.17;;;;;;;8.65;73.96;100499.00;4195647;28;20040;-73
2023/01/11 04:58:02;;;;;;;1.40;1.08;;;;;;;8.64;74.11;100505.00;4194031;28;20036;-73
2023/01/11 05:00:09;;;;;;;4.93;1.38;;;;;;;8.51;74.79;100511.63;4194197;28;20071;-73
2023/01/11 05:02:12;;;;;;;4.07;1.40;;;;;;;8.56;74.71;100518.66;4195259;28;20118;-73
2023/01/11 05:04:15;;;;;;;3.22;1.30;;;;;;;8.54;74.88;100511.69;4193710;28;20041;-72
2023/01/11 05:06:21;;;;;;;4.85;1.42;;;;;;;8.53;74.86;100512.56;4195400;28;20553;-71
2023/01/11 05:08:26;;;;;;;6.18;1.50;;;;;;;8.59;74.86;100515.28;4194909;28;20208;-71
2023/01/11 05:10:29;;;;;;;7.07;1.58;;;;;;;8.56;74.97;100515.22;4194091;28;20039;-71
2023/01/11 05:12:31;;;;;;;5.38;1.40;;;;;;;8.70;74.66;100508.63;4194356;28;20059;-72
2023/01/11 05:14:34;;;;;;;4.38;1.60;;;;;;;8.55;75.16;100516.03;4193278;28;20476;-71
2023/01/11 05:16:37;;;;;;;2.88;1.20;;;;;;;8.56;75.30;100518.66;4193673;28;20468;-71
2023/01/11 05:18:41;;;;;;;2.00;1.00;;;;;;;8.58;75.18;100517.84;4191998;28;20029;-71
2023/01/11 05:20:43;;;;;;;3.83;1.60;;;;;;;8.56;75.79;100510.88;4195367;28;20405;-71
2023/01/11 05:22:46;;;;;;;3.35;1.30;;;;;;;8.57;75.63;100516.94;4193671;28;20045;-70
2023/01/11 05:24:50;;;;;;;4.35;1.52;;;;;;;8.58;75.90;100513.50;4189083;28;20094;-70
2023/01/11 05:26:53;;;;;;;4.18;1.30;;;;;;;8.54;75.96;100514.28;4192565;28;20429;-70
2023/01/11 05:28:58;;;;;;;3.25;1.52;;;;;;;8.55;75.88;100516.91;4196044;28;20044;-71
2023/01/11 05:31:01;;;;;;;3.53;1.75;;;;;;;8.51;76.67;100519.38;4196438;28;20029;-71
2023/01/11 05:33:04;;;;;;;3.60;1.50;;;;;;;8.56;76.55;100505.72;4195815;28;20094;-71
2023/01/11 05:35:10;;;;;;;3.92;1.48;;;;;;;8.57;76.58;100501.38;4194068;28;20044;-71
2023/01/11 05:37:12;;;;;;;5.28;1.55;;;;;;;8.59;76.78;100493.69;4194969;28;20063;-71
2023/01/11 05:39:15;;;;;;;3.40;1.40;;;;;;;8.55;77.08;100492.72;4195164;28;20161;-70
2023/01/11 05:41:21;;;;;;;1.58;1.08;;;;;;;8.63;76.91;100486.00;4196733;28;20032;-71
2023/01/11 05:43:25;;;;;;;3.58;1.73;;;;;;;8.47;77.68;100481.28;4193723;28;20052;-70
2023/01/11 05:45:31;;;;;;;3.58;1.63;;;;;;;8.56;77.40;100484.97;4178549;28;20118;-70
2023/01/11 05:47:34;;;;;;;5.78;1.42;;;;;;;8.63;77.22;100486.00;4196480;28;20040;-70
2023/01/11 05:49:36;;;;;;;3.03;1.33;;;;;;;8.70;76.87;100476.63;4196285;28;20029;-70
2023/01/11 05:51:40;;;;;;;2.75;1.23;;;;;;;8.66;77.08;100473.13;4196079;28;20090;-70
2023/01/11 05:53:43;;;;;;;2.45;1.13;;;;;;;8.62;77.09;100483.38;4196355;28;20071;-70
2023/01/11 05:55:53;;;;;;;3.78;1.48;;;;;;;8.78;76.74;100475.09;4194415;28;20056;-71
2023/01/11 05:57:57;;;;;;;4.28;1.50;;;;;;;8.64;77.38;100468.72;4194896;28;20052;-70
2023/01/11 06:00:00;;;;;;;4.60;1.90;;;;;;;8.63;77.78;100466.97;4176955;28;20479;-70
2023/01/11 06:02:08;;;;;;;4.25;1.73;;;;;;;8.60;77.74;100465.22;4195539;28;20518;-70
2023/01/11 06:04:11;;;;;;;4.07;1.38;;;;;;;8.65;77.82;100460.13;4194469;28;20376;-70
2023/01/11 06:06:15;;;;;;;2.55;1.40;;;;;;;8.66;77.91;100460.16;4196245;28;20069;-70
2023/01/11 06:08:18;;;;;;;3.58;1.50;;;;;;;8.60;77.98;100444.47;4196154;28;20479;-71
2023/01/11 06:10:21;;;;;;;3.13;1.38;;;;;;;8.76;77.68;100455.16;4194994;28;20033;-71
2023/01/11 06:12:23;;;;;;;4.28;1.40;;;;;;;8.69;77.75;100444.66;4196059;28;20040;-70
2023/01/11 06:14:27;;;;;;;5.28;1.70;;;;;;;8.69;77.84;100449.84;4208367;28;20368;-70
2023/01/11 06:16:30;;;;;;;4.93;1.75;;;;;;;8.71;77.97;100444.69;4196186;28;20306;-70
2023/01/11 06:18:35;;;;;;;2.60;1.30;;;;;;;8.71;78.02;100450.75;4194686;28;20044;-71
2023/01/11 06:20:38;;;;;;;3.40;1.52;;;;;;;8.81;77.78;100443.19;4193220;28;20063;-70
2023/01/11 06:22:41;;;;;;;3.72;1.10;;;;;;;8.84;77.49;100435.47;4194479;28;20063;-71
2023/01/11 06:24:43;;;;;;;4.07;1.20;;;;;;;8.79;77.92;100437.97;4194847;28;20032;-71
2023/01/11 06:26:46;;;;;;;3.92;1.30;;;;;;;8.84;77.80;100428.56;4194595;28;20051;-72
2023/01/11 06:28:50;;;;;;;2.65;1.25;;;;;;;8.87;77.65;100430.34;4189137;28;20044;-70
2023/01/11 06:30:56;;;;;;;1.40;1.02;;;;;;;8.79;78.03;100430.19;4195324;28;20406;-71
2023/01/11 06:33:04;;;;;;;2.85;1.10;;;;;;;8.76;78.18;100424.94;4194134;28;20048;-71
2023/01/11 06:35:07;;;;;;;3.13;1.50;;;;;;;8.84;78.28;100415.59;4195200;28;20044;-71
2023/01/11 06:37:10;;;;;;;3.17;1.10;;;;;;;8.83;78.01;100418.16;4194371;28;20042;-70
2023/01/11 06:39:13;;;;;;;4.32;1.55;;;;;;;8.84;78.07;100422.50;4195718;28;20035;-70
2023/01/11 06:41:16;;;;;;;2.25;1.48;;;;;;;8.81;78.46;100420.72;4195695;28;20041;-71
2023/01/11 06:43:19;;;;;;;3.63;1.35;;;;;;;8.88;78.15;100416.56;4194753;28;20043;-71
2023/01/11 06:45:22;;;;;;;5.30;1.45;;;;;;;8.87;77.95;100412.19;4190955;28;20135;-70
2023/01/11 06:47:26;;;;;;;2.33;1.00;;;;;;;8.82;78.08;100408.63;4196451;28;20082;-71
2023/01/11 06:49:29;;;;;;;4.15;1.10;;;;;;;8.90;77.56;100413.13;4195608;28;20095;-70
2023/01/11 06:51:32;;;;;;;2.70;1.17;;;;;;;8.93;77.88;100412.31;4195441;28;20036;-71
2023/01/11 06:53:35;;;;;;;4.25;1.40;;;;;;;8.86;78.03;100402.66;4194822;28;20500;-70
2023/01/11 06:55:37;;;;;;;1.80;1.30;;;;;;;8.95;77.67;100405.47;4195551;28;20048;-71
2023/01/11 06:57:42;;;;;;;2.08;1.10;;;;;;;8.88;78.06;100408.78;4194483;28;20036;-70
2023/01/11 06:59:45;;;;;;;2.92;1.55;;;;;;;8.81;78.09;100412.09;4195521;28;20040;-70
2023/01/11 07:01:48;;;;;;;2.70;1.00;;;;;;;8.85;78.05;100404.41;4195066;28;20525;-71
2023/01/11 07:03:52;;;;;;;5.28;1.55;;;;;;;9.01;77.40;100405.56;4185239;28;20037;-70
2023/01/11 07:05:56;;;;;;;5.45;1.23;;;;;;;8.96;77.86;100407.19;4193885;28;20048;-71
2023/01/11 07:07:59;;;;;;;2.75;1.17;;;;;;;8.99;77.73;100407.25;4193915;28;20076;-71
2023/01/11 07:10:02;;;;;;;2.60;1.10;;;;;;;8.99;77.54;100401.19;4195359;28;20078;-70
2023/01/11 07:12:05;;;;;;;1.02;0.80;;;;;;;8.95;77.80;100410.66;4193025;28;20135;-71
2023/01/11 07:14:08;;;;;;;3.63;1.40;;;;;;;9.03;77.65;100400.41;4194513;28;21160;-70
2023/01/11 07:16:11;;;;;;;2.65;1.30;;;;;;;9.02;77.56;100402.16;4195337;28;20505;-70
2023/01/11 07:18:14;;;;;;;1.10;0.90;;;;;;;8.98;77.73;100396.84;4194365;28;20029;-70
2023/01/11 07:20:18;;;;;;;4.55;1.10;;;;;;;8.96;78.02;100402.00;4195750;28;20060;-71
2023/01/11 07:22:22;;;;;;;3.85;1.20;;;;;;;9.11;77.12;100388.44;4193630;28;20045;-70
2023/01/11 07:24:25;;;;;;;3.35;1.38;;;;;;;9.04;77.43;100389.22;4193155;28;20375;-72
2023/01/11 07:26:28;;;;;;;1.52;0.98;;;;;;;9.11;77.54;100387.59;4195282;28;20036;-71
2023/01/11 07:28:31;;;;;;;2.97;1.30;;;;;;;9.11;77.00;100391.03;4194106;28;20529;-71
2023/01/11 07:30:37;;;;;;;2.10;1.42;;;;;;;9.13;77.27;100393.69;4193774;28;20040;-74
2023/01/11 07:32:59;;;;;;;5.38;1.40;;;;;;;9.12;77.65;100391.94;4191822;28;20068;-70
2023/01/11 07:35:01;;;;;;;4.35;1.35;;;;;;;9.11;77.27;100385.84;4193253;28;20078;-70
2023/01/11 07:37:08;;;;;;;2.15;1.00;;;;;;;9.23;77.11;100383.50;4188981;28;20040;-70
2023/01/11 07:39:30;;;;;;;4.15;1.75;;;;;;;9.16;77.52;100388.56;4194093;28;20064;-72
2023/01/11 07:44:05;;;;;;;2.35;1.33;;;;;;;9.15;77.64;100384.22;4194559;28;20068;-72
2023/01/11 07:46:08;;;;;;;2.55;1.20;;;;;;;9.15;77.62;100381.63;4197347;28;20052;-72
2023/01/11 07:48:11;;;;;;;2.47;0.90;;;;;;;9.13;77.83;100384.19;4198442;28;20045;-72
2023/01/11 07:50:15;;;;;;;3.08;1.10;;;;;;;9.11;78.02;100388.44;4198210;28;20048;-72
2023/01/11 07:52:19;;;;;;;1.88;0.90;;;;;;;9.16;77.79;100394.63;4196604;28;20051;-73
2023/01/11 07:54:23;;;;;;;2.47;1.20;;;;;;;9.16;77.95;100394.63;4196356;28;20361;-71
2023/01/11 07:56:26;;;;;;;3.63;1.20;;;;;;;9.19;77.63;100394.66;4196183;28;20402;-71
2023/01/11 07:58:30;;;;;;;2.38;1.10;;;;;;;9.21;78.05;100397.28;4197005;28;20067;-71
2023/01/11 08:00:33;;;;;;;2.45;0.88;;;;;;;9.27;77.51;100394.81;4196948;28;20490;-71
2023/01/11 08:02:35;;;;;;;5.35;1.65;;;;;;;9.26;77.85;100395.66;4196932;28;20583;-71
2023/01/11 08:04:38;;;;;;;2.35;1.00;;;;;;;9.20;77.91;100398.13;4197246;28;20028;-71
2023/01/11 08:06:41;;;;;;;1.58;0.95;;;;;;;9.18;78.13;100397.22;4196896;28;20036;-71
2023/01/11 08:08:45;;;;;;;1.80;0.90;;;;;;;9.16;77.82;100402.41;4198149;28;20085;-71
2023/01/11 08:14:37;;;;;;;3.55;1.38;;;;;;;9.23;78.05;100406.00;4198144;28;20115;-71
2023/01/11 08:15:35;;;;;;;3.70;1.30;;;;;;;9.30;77.71;100405.25;4198186;28;20195;-71
2023/01/11 08:17:38;;;;;;;4.05;0.90;;;;;;;9.22;77.91;100406.84;4197756;28;20039;-71
2023/01/11 08:19:42;;;;;;;1.10;1.00;;;;;;;9.31;78.05;100401.81;4198074;28;20048;-71
2023/01/11 08:21:45;;;;;;;0.85;0.80;;;;;;;9.23;78.33;100398.22;4197535;28;20127;-71
2023/01/11 08:23:49;;;;;;;2.90;1.20;;;;;;;9.19;77.96;100399.00;4196196;28;20055;-71
2023/01/11 08:25:56;;;;;;;2.58;0.80;;;;;;;9.26;78.35;100400.84;4196652;28;20037;-71
2023/01/11 08:28:00;;;;;;;1.52;0.90;;;;;;;9.36;77.63;100401.88;4197755;28;20091;-71
2023/01/11 08:30:04;;;;;;;2.30;1.00;;;;;;;9.23;78.70;100391.28;4197193;28;20032;-71
2023/01/11 08:32:07;;;;;;;1.20;0.80;;;;;;;9.28;78.50;100399.16;4197870;28;20102;-71
2023/01/11 08:34:09;;;;;;;1.80;1.10;;;;;;;9.19;78.72;100391.22;4197083;28;20104;-71
2023/01/11 08:36:13;;;;;;;2.25;1.08;;;;;;;9.34;78.79;100395.81;4197434;28;20094;-71
2023/01/11 08:38:15;;;;;;;1.67;0.90;;;;;;;9.34;79.39;100398.41;4197226;28;20049;-71
2023/01/11 08:40:20;;;;;;;3.90;1.20;;;;;;;9.32;79.28;100392.31;4194114;28;20033;-71
2023/01/11 08:42:26;;;;;;;1.60;0.90;;;;;;;9.23;80.23;100390.44;4196871;28;20482;-70
2023/01/11 08:44:29;;;;;;;2.50;1.00;;;;;;;9.26;79.94;100400.84;4195411;28;20036;-70
2023/01/11 08:46:36;;;;;;;2.10;0.98;;;;;;;9.26;79.95;100387.88;4196314;28;20044;-71
2023/01/11 08:48:39;;;;;;;2.20;1.10;;;;;;;9.38;80.05;100385.50;4197331;28;20028;-70
2023/01/11 08:50:43;;;;;;;3.55;1.10;;;;;;;9.25;80.20;100389.59;4196492;28;20058;-70
2023/01/11 08:52:46;;;;;;;1.50;1.05;;;;;;;9.25;80.06;100396.50;4196121;28;20040;-70
2023/01/11 08:54:49;;;;;;;2.88;0.73;;;;;;;9.23;80.19;100390.44;4191500;28;20162;-70
2023/01/11 08:56:54;;;;;;;1.25;1.02;;;;;;;9.36;80.15;100389.81;4195289;28;20509;-70
2023/01/11 08:58:57;;;;;;;3.80;1.20;;;;;;;9.36;80.12;100400.19;4196582;28;20041;-69
2023/01/11 09:01:02;;;;;;;2.28;0.90;;;;;;;9.32;80.04;100397.50;4197313;28;20043;-70
2023/01/11 09:03:05;;;;;;;2.75;1.10;;;;;;;9.30;80.41;100402.66;4191866;28;20091;-70
2023/01/11 09:05:09;;;;;;;2.10;1.05;;;;;;;9.30;80.68;100392.28;4198991;28;20044;-70
2023/01/11 09:07:12;;;;;;;1.38;0.93;;;;;;;9.32;80.85;100398.38;4208478;28;20047;-70
2023/01/11 09:09:14;;;;;;;1.48;1.10;;;;;;;9.33;80.75;100397.53;4194486;28;20033;-70
2023/01/11 09:13:39;;;;;;;3.00;1.10;;;;;;;9.32;81.06;100395.78;4192959;28;20037;-69
2023/01/11 09:15:45;;;;;;;1.77;0.90;;;;;;;9.29;80.76;100400.03;4195814;28;20048;-70
2023/01/11 09:17:49;;;;;;;2.10;0.90;;;;;;;9.24;81.23;100398.25;4197353;28;20059;-70
2023/01/11 09:19:51;;;;;;;2.25;0.85;;;;;;;9.34;80.73;100398.41;4197546;28;20117;-70
2023/01/11 09:21:59;;;;;;;2.75;1.00;;;;;;;9.34;80.96;100401.00;4196277;28;20043;-70
2023/01/11 09:24:03;;;;;;;3.38;1.00;;;;;;;9.40;80.34;100406.28;4195841;28;20052;-70
2023/01/11 09:26:06;;;;;;;0.88;0.75;;;;;;;9.39;80.65;100401.97;4195841;28;20096;-70
2023/01/11 09:28:09;;;;;;;1.20;1.05;;;;;;;9.44;80.58;100401.16;4197197;28;20427;-70
2023/01/11 09:30:15;;;;;;;2.17;1.30;;;;;;;9.49;80.23;100402.97;4194879;28;20118;-70
2023/01/11 09:32:18;;;;;;;2.10;1.02;;;;;;;9.46;81.06;100403.78;4195651;28;20479;-70
2023/01/11 09:34:22;;;;;;;1.13;0.80;;;;;;;9.48;81.05;100403.84;4177963;28;20053;-70
2023/01/11 09:36:26;;;;;;;1.40;0.80;;;;;;;9.46;81.12;100403.78;4178236;28;20049;-70
2023/01/11 09:38:29;;;;;;;2.28;1.17;;;;;;;9.59;80.86;100404.88;4194897;28;20029;-70
2023/01/11 09:40:41;;;;;;;1.38;1.02;;;;;;;9.59;80.38;100399.69;4196085;28;20041;-69
2023/01/11 09:42:46;;;;;;;0.98;0.90;;;;;;;9.56;80.70;100400.53;4195311;28;20041;-70
2023/01/11 09:44:50;;;;;;;;;;;;;;;9.51;80.99;100401.31;4197132;28;20036;-70
2023/01/11 09:46:59;;;;;;;1.20;0.90;;;;;;;9.46;81.16;100406.38;4197176;28;19924;-70
2023/01/11 09:49:03;;;;;;;1.15;0.73;;;;;;;9.49;81.02;100410.75;4197024;28;20033;-70
2023/01/11 09:51:06;;;;;;;2.22;1.08;;;;;;;9.48;81.34;100409.91;4194847;28;20052;-70
2023/01/11 09:53:21;;;;;;;1.75;0.80;;;;;;;9.58;81.00;100408.34;4195293;28;20049;-70
2023/01/11 09:55:33;;;;;;;1.85;1.10;;;;;;;9.55;81.41;100405.69;4196366;28;20046;-70
2023/01/11 09:57:50;;;;;;;2.03;0.90;;;;;;;9.52;81.52;100416.91;4194661;28;20043;-70
2023/01/11 10:00:03;;;;;;;2.13;1.02;;;;;;;9.47;82.03;100425.44;4196934;28;20064;-70
2023/01/11 10:02:18;;;;;;;0.98;0.90;;;;;;;9.58;82.04;100408.34;4190279;28;20044;-70
2023/01/11 10:04:39;;;;;;;1.60;0.80;;;;;;;9.59;81.78;100418.75;4191958;28;20032;-70
2023/01/11 10:06:50;;;;;;;2.95;1.20;;;;;;;9.51;81.77;100411.69;4193359;28;20106;-70
2023/01/11 10:09:17;;;;;;;2.05;0.70;;;;;;;9.64;81.66;100408.44;4191482;28;20043;-70
2023/01/11 10:12:00;;;;;;;2.90;1.15;;;;;;;9.70;81.87;100403.34;4195031;28;20056;-71
2023/01/11 10:14:32;;;;;;;1.02;0.90;;;;;;;9.57;81.96;100404.88;4195342;28;20319;-70
2023/01/11 10:17:01;;;;;;;1.30;1.20;;;;;;;9.48;83.15;100407.31;4194697;28;20119;-70